Lee Hall, Virginia
Current Conditions -  °F | °C
As of 2:58 AM on Friday 21 Nov 2014 (Local Time) from KFAF Reporting Station
Clear Clear  
Wind Chill: 35°   Ceiling: Unl
Heat Index: 40°   Visibility: 10mi
Dew Point: 26°   Wind: 7mph
Humidity: 59%   Direction: 360°N
Pressure: 30.17"   Gusts: NA
Location:  37.1935°N, 76.5695°W
Report Text: KFAF 210758Z AUTO 36006KT 10SM CLR 04/M03 A3017 RMK AO2 SLP220 T00421031 $
Loading
Personal Weather Stations






























Interactive Weather Map New forecast layout! Learn more

10-Day Weather Forecast

Advertisements
Track Severe Weather on mobile